createdAt,value
2019-05-18T00:02:11.837Z,13.22
2019-05-18T00:07:09.639Z,13.11
2019-05-18T00:12:10.371Z,13
2019-05-18T00:17:24.494Z,12.88
2019-05-18T00:22:11.788Z,12.83
2019-05-18T00:27:09.137Z,12.77
2019-05-18T00:32:11.653Z,12.77
2019-05-18T00:37:11.458Z,12.77
2019-05-18T00:42:10.049Z,12.77
2019-05-18T00:47:11.090Z,12.72
2019-05-18T00:52:11.975Z,12.66
2019-05-18T00:57:10.464Z,12.61
2019-05-18T01:02:11.343Z,12.61
2019-05-18T01:07:11.132Z,12.61
2019-05-18T01:12:10.937Z,12.55
2019-05-18T01:17:10.536Z,12.55
2019-05-18T01:22:10.461Z,12.55
2019-05-18T01:27:11.962Z,12.55
2019-05-18T01:32:11.004Z,12.55
2019-05-18T01:37:11.645Z,12.55
2019-05-18T01:42:10.964Z,12.5
2019-05-18T01:47:11.949Z,12.5
2019-05-18T01:52:11.174Z,12.5
2019-05-18T01:57:12.383Z,12.5
2019-05-18T02:02:12.093Z,12.44
2019-05-18T02:07:11.009Z,12.44
2019-05-18T02:12:11.574Z,12.44
2019-05-18T02:17:11.170Z,12.44
2019-05-18T02:22:10.766Z,12.44
2019-05-18T02:27:11.124Z,12.44
2019-05-18T02:32:11.314Z,12.38
2019-05-18T02:37:11.657Z,12.33
2019-05-18T02:42:11.305Z,12.33
2019-05-18T02:47:10.761Z,12.33
2019-05-18T02:52:12.183Z,12.33
2019-05-18T02:57:09.402Z,12.33
2019-05-18T03:02:09.235Z,12.33
2019-05-18T03:07:11.644Z,12.33
2019-05-18T03:12:10.870Z,12.33
2019-05-18T03:17:10.210Z,12.33
2019-05-18T03:22:12.138Z,12.27
2019-05-18T03:27:11.557Z,12.22
2019-05-18T03:32:10.500Z,12.22
2019-05-18T03:37:09.222Z,12.22
2019-05-18T03:42:11.097Z,12.16
2019-05-18T03:47:09.459Z,12.16
2019-05-18T03:52:10.816Z,12.16
2019-05-18T03:57:10.873Z,12.16
2019-05-18T04:02:09.649Z,12.16
2019-05-18T04:07:11.266Z,12.16
2019-05-18T04:12:11.371Z,12.22
2019-05-18T04:17:09.380Z,12.22
2019-05-18T04:22:11.899Z,12.22
2019-05-18T04:27:10.994Z,12.22
2019-05-18T04:32:09.069Z,12.27
2019-05-18T04:37:10.619Z,12.33
2019-05-18T04:42:10.820Z,12.38
2019-05-18T04:47:10.086Z,12.38
2019-05-18T04:52:08.727Z,12.44
2019-05-18T04:57:10.938Z,12.5
2019-05-18T05:02:11.910Z,12.55
2019-05-18T05:07:10.067Z,12.61
2019-05-18T05:12:09.396Z,12.66
2019-05-18T05:17:11.046Z,12.72
2019-05-18T05:22:09.813Z,12.72
2019-05-18T05:27:10.709Z,12.77
2019-05-18T05:32:10.985Z,12.77
2019-05-18T05:37:09.998Z,12.83
2019-05-18T05:42:10.031Z,12.94
2019-05-18T05:47:10.559Z,13.05
2019-05-18T05:57:10.048Z,13.44
2019-05-18T06:02:10.467Z,13.66
2019-05-18T06:07:08.755Z,13.94
2019-05-18T06:12:11.124Z,14.16
2019-05-18T06:17:10.865Z,14.44
2019-05-18T06:22:09.692Z,14.61
2019-05-18T06:32:10.230Z,15.11
2019-05-18T06:37:11.147Z,15.11
2019-05-18T06:47:11.050Z,15.33
2019-05-18T06:52:10.958Z,15.33
2019-05-18T06:57:10.805Z,15.33
2019-05-18T07:02:09.985Z,15.61
2019-05-18T07:07:10.883Z,15.88
2019-05-18T07:12:10.128Z,16.27
2019-05-18T07:17:10.515Z,16.5
2019-05-18T07:22:09.802Z,16.61
2019-05-18T07:27:10.617Z,16.88
2019-05-18T07:37:10.413Z,16.88
2019-05-18T07:42:09.299Z,16.83
2019-05-18T07:47:11.103Z,17
2019-05-18T07:57:10.039Z,17.33
2019-05-18T08:02:08.768Z,17.61
2019-05-18T08:07:10.620Z,17.77
2019-05-18T08:12:10.783Z,18
2019-05-18T08:27:10.065Z,18.77
2019-05-18T08:32:11.577Z,19
2019-05-18T08:37:10.515Z,19.11
2019-05-18T08:42:09.360Z,19.22
2019-05-18T08:52:10.865Z,19.66
2019-05-18T08:57:09.384Z,19.83
2019-05-18T09:07:09.676Z,19.83
2019-05-18T09:17:09.627Z,20.11
2019-05-18T09:22:22.486Z,20.33
2019-05-18T09:27:10.339Z,20.38
2019-05-18T09:37:09.742Z,20.11
2019-05-18T09:42:10.088Z,20.11
2019-05-18T09:47:09.954Z,20.27
2019-05-18T09:52:10.174Z,20.5
2019-05-18T09:57:10.188Z,21.05
2019-05-18T10:02:10.757Z,21.44
2019-05-18T10:07:10.806Z,21.83
2019-05-18T10:12:09.914Z,22.33
2019-05-18T10:17:10.471Z,22.55
2019-05-18T10:22:10.974Z,22.61
2019-05-18T10:27:10.824Z,22.55
2019-05-18T10:32:09.591Z,22.38
2019-05-18T10:42:10.045Z,22.38
2019-05-18T10:47:10.466Z,22.66
2019-05-18T10:52:08.686Z,22.83
2019-05-18T11:07:10.655Z,23.44
2019-05-18T11:12:09.825Z,23.61
2019-05-18T11:27:10.075Z,23.33
2019-05-18T11:32:09.291Z,23.38
2019-05-18T11:37:11.406Z,23.22
2019-05-18T11:42:09.978Z,22.88
2019-05-18T11:47:09.297Z,22.44
2019-05-18T11:52:10.989Z,21.5
2019-05-18T11:57:08.988Z,20.27
2019-05-18T12:02:09.865Z,19.33
2019-05-18T12:07:10.493Z,18.72
2019-05-18T12:12:10.250Z,18.33
2019-05-18T12:17:11.270Z,17.88
2019-05-18T12:22:11.091Z,17.66
2019-05-18T12:27:10.009Z,17.55
2019-05-18T12:32:09.397Z,17.5
2019-05-18T12:37:10.512Z,17.55
2019-05-18T12:42:10.282Z,17.55
2019-05-18T12:47:08.840Z,17.55
2019-05-18T12:52:10.485Z,17.61
2019-05-18T12:57:10.183Z,17.77
2019-05-18T13:02:10.130Z,17.88
2019-05-18T13:07:09.562Z,18
2019-05-18T13:12:11.824Z,18.11
2019-05-18T13:17:10.577Z,18.16
2019-05-18T13:22:09.595Z,18.16
2019-05-18T13:27:10.250Z,18.16
2019-05-18T13:32:11.375Z,18.27
2019-05-18T13:37:10.425Z,18.38
2019-05-18T13:42:10.637Z,18.38
2019-05-18T13:47:10.260Z,18.33
2019-05-18T13:52:08.380Z,18.33
2019-05-18T13:57:10.974Z,18.27
2019-05-18T14:02:09.433Z,18.27
2019-05-18T14:07:10.122Z,18.22
2019-05-18T14:12:10.426Z,18
2019-05-18T14:17:10.614Z,17.77
2019-05-18T14:27:09.713Z,17
2019-05-18T14:32:11.016Z,16.66
2019-05-18T14:37:10.384Z,16.33
2019-05-18T14:42:08.665Z,15.83
2019-05-18T14:47:10.457Z,15.33
2019-05-18T14:52:12.107Z,15.05
2019-05-18T14:57:10.500Z,14.94
2019-05-18T15:02:10.651Z,15
2019-05-18T15:07:09.994Z,15.27
2019-05-18T15:12:09.396Z,15.27
2019-05-18T15:17:10.332Z,15.44
2019-05-18T15:22:11.338Z,15.61
2019-05-18T15:32:08.503Z,15.72
2019-05-18T15:37:09.604Z,15.83
2019-05-18T15:42:10.679Z,15.88
2019-05-18T15:47:10.138Z,16
2019-05-18T15:52:11.116Z,16.11
2019-05-18T15:57:08.461Z,16.33
2019-05-18T16:02:10.603Z,16.66
2019-05-18T16:07:09.799Z,16.88
2019-05-18T16:12:11.267Z,17
2019-05-18T16:17:10.454Z,17.11
2019-05-18T16:22:10.568Z,17.27
2019-05-18T16:27:09.619Z,17.44
2019-05-18T16:32:10.279Z,17.61
2019-05-18T16:37:10.245Z,17.66
2019-05-18T16:42:09.969Z,17.77
2019-05-18T16:47:10.269Z,17.83
2019-05-18T17:07:11.098Z,18.22
2019-05-18T17:12:08.887Z,18.16
2019-05-18T17:27:09.795Z,17.5
2019-05-18T17:32:09.089Z,17.27
2019-05-18T17:37:10.600Z,17.16
2019-05-18T17:42:10.560Z,17
2019-05-18T17:47:11.070Z,16.83
2019-05-18T17:57:10.690Z,16.44
2019-05-18T18:02:10.033Z,16.33
2019-05-18T18:07:11.163Z,16.22
2019-05-18T18:12:10.340Z,16.11
2019-05-18T18:17:10.133Z,16
2019-05-18T18:22:10.498Z,15.77
2019-05-18T18:27:24.151Z,15.66
2019-05-18T18:32:09.639Z,15.55
2019-05-18T18:37:10.644Z,15.33
2019-05-18T18:42:10.838Z,15.22
2019-05-18T18:47:09.207Z,15.11
2019-05-18T18:52:10.915Z,15
2019-05-18T18:57:10.447Z,14.88
2019-05-18T19:07:09.195Z,14.72
2019-05-18T19:12:10.634Z,14.61
2019-05-18T19:17:09.466Z,14.55
2019-05-18T19:22:09.243Z,14.44
2019-05-18T19:32:10.684Z,14.22
2019-05-18T19:37:08.790Z,14.16
2019-05-18T19:42:10.092Z,14.11
2019-05-18T19:47:09.824Z,14
2019-05-18T19:52:10.157Z,13.94
2019-05-18T19:57:10.495Z,13.88
2019-05-18T20:02:09.589Z,13.88
2019-05-18T20:12:09.107Z,13.66
2019-05-18T20:17:10.489Z,13.61
2019-05-18T20:22:12.241Z,13.55
2019-05-18T20:27:11.337Z,13.5
2019-05-18T20:32:10.812Z,13.38
2019-05-18T20:37:10.434Z,13.33
2019-05-18T20:42:08.855Z,13.27
2019-05-18T20:47:10.280Z,13.22
2019-05-18T20:52:10.926Z,13.11
2019-05-18T20:57:10.973Z,13.05
2019-05-18T21:02:09.346Z,13
2019-05-18T21:07:11.039Z,12.94
2019-05-18T21:12:09.927Z,12.94
2019-05-18T21:17:09.765Z,12.88
2019-05-18T21:22:09.095Z,12.88
2019-05-18T21:27:10.561Z,12.88
2019-05-18T21:32:10.103Z,12.88
2019-05-18T21:37:10.320Z,12.88
2019-05-18T21:42:10.504Z,12.83
2019-05-18T21:47:10.823Z,12.83
2019-05-18T21:52:09.237Z,12.77
2019-05-18T21:57:10.186Z,12.72
2019-05-18T22:02:10.482Z,12.66
2019-05-18T22:07:10.588Z,12.66
2019-05-18T22:12:10.756Z,12.66
2019-05-18T22:17:08.883Z,12.66
2019-05-18T22:22:09.014Z,12.66
2019-05-18T22:27:10.426Z,12.66
2019-05-18T22:32:11.622Z,12.77
2019-05-18T22:37:08.484Z,12.77
2019-05-18T22:42:10.348Z,12.77
2019-05-18T22:47:10.774Z,12.77
2019-05-18T22:52:10.414Z,12.77
2019-05-18T22:57:10.678Z,12.77
2019-05-18T23:02:11.305Z,12.77
2019-05-18T23:07:11.794Z,12.77
2019-05-18T23:12:10.236Z,12.77
2019-05-18T23:17:11.007Z,12.72
2019-05-18T23:22:11.306Z,12.72
2019-05-18T23:27:10.006Z,12.72
2019-05-18T23:32:09.546Z,12.66
2019-05-18T23:37:10.709Z,12.66
2019-05-18T23:42:11.027Z,12.66
2019-05-18T23:47:10.587Z,12.66
2019-05-18T23:52:09.768Z,12.66
2019-05-18T23:57:10.598Z,12.66
